In Rescue
 
Open Full Screen Window  High Contrast Mode
Wind Gusting 00 knots
05
August 09, 2020 7:58 PM EDT
Weather Information
Wind Direction
  180 °
Wind Speed
  05 kt (6 mph)
Wind Gust
  00 kt (0 mph)
Altimeter
30.01 in
Visibility
10 SM
Temperature
27° C
81° F
Dewpoint
21° C
70° F
Humidity
70%
Sky Condition
Scattered @ 5,000 ft
VFR

METAR KPHN 092358Z AUTO 18005KT 10SM SCT050 27/21 A3001 RMK AO2

FAA Disclaimer: The data displayed is for advisory purposes only and is not to be used for flight planning or operations.